Daily Weather Observations
for Eton, QLD
Now
17.3°C

< Previous Day
Next Day >
Select a different date below:
/ /
Daily Weather Observations for Eton
For Saturday 18th August 2018

This table is designed for ease of comparison to Bureau of Meteorology recorded weather data.

Station Details Name: ETON Lat: -21.27 Lon: 148.97 Height: 81.1 m
Date/Time
EST
Temp
°C
App
Temp
°C
Dew
Point
°C
Rel
Hum
%
Delta-T
°C
Wind Press
QNH
hPa
Press
MSL
hPa
Rain since
9am
mm
Dir  Spd
km/h
Gust
km/h
Spd
kts
Gust
kts
18/11:30pm 18.4 19.2 13.3 74 3.0 WSW 1 6 1 3 1015.5 1015.5 0.0
18/11:00pm 18.1 19.0 14.6 81 2.2 WSW 4 6 2 3 1015.7 1015.7 0.0
18/10:30pm 17.7 19.8 16.7 95 0.6 WSW 3 6 2 3 1015.8 1015.8 0.0
18/10:00pm 18.0 20.3 17.3 96 0.5 S 3 4 2 2 1015.6 1015.6 0.0
18/09:30pm 18.5 20.9 17.1 92 0.9 CALM 0 0 0 0 1015.5 1015.5 0.0
18/09:00pm 18.5 20.7 17.0 92 1.0 SE 2 4 1 2 1015.6 1015.6 0.0
18/08:30pm 17.4 19.5 16.2 94 0.8 SE 2 4 1 2 1015.5 1015.5 0.0
18/08:00pm 17.4 19.0 16.3 95 0.7 SE 5 8 3 4 1015.1 1015.1 0.0
18/07:30pm 18.1 19.0 16.5 91 1.0 SSE 7 10 4 5 1015.0 1015.0 0.0
18/07:00pm 19.2 18.8 15.9 82 2.1 SE 16 20 9 11 1014.6 1014.6 0.0
18/06:30pm 20.8 19.4 13.9 67 4.2 SE 13 17 7 9 1014.2 1014.2 0.0
18/06:00pm 22.5 22.8 14.8 62 4.8 SE 8 10 4 5 1013.7 1013.7 0.0
18/05:30pm 24.4 25.1 16.7 65 4.9 E 6 14 3 8 1013.2 1013.2 0.0
18/05:00pm 25.7 25.6 4.9 26 9.9 E 9 17 5 9 1012.9 1012.9 0.0
18/04:30pm 26.5 25.9 4.5 25 10.3 E 16 27 9 15 1012.5 1012.5 0.0
18/04:00pm 27.3 26.4 5.4 25 10.6 E 17 24 9 13 1012.4 1012.4 0.0
18/03:30pm 28.0 26.8 4.0 22 11.1 ESE 22 31 12 17 1012.1 1012.1 0.0
18/03:00pm 28.3 27.0 5.0 23 11.1 ESE 22 29 12 16 1012.2 1012.2 0.0
18/02:30pm 29.5 27.9 5.1 22 11.6 ENE 13 27 7 15 1012.4 1012.4 0.0
18/02:00pm 29.5 27.9 5.6 22 11.6 NE 13 20 7 11 1012.9 1012.9 0.0
18/01:30pm 29.7 28.0 6.2 23 11.6 ESE 13 23 7 12 1013.5 1013.5 0.0
18/01:00pm 29.2 27.7 7.3 26 11.2 ESE 11 17 6 9 1014.2 1014.2 0.0
18/12:30pm 28.8 27.9 10.7 34 10.1 SE 10 24 5 13 1014.7 1014.7 0.0
18/12:00pm 28.0 27.1 9.2 31 10.1 E 13 18 7 10 1015.4 1015.4 0.0
18/11:30am 27.1 26.7 10.6 36 9.2 NNW 10 18 5 10 1016.2 1016.2 0.0
18/11:00am 26.2 26.3 11.6 41 8.4 NW 13 18 7 10 1016.7 1016.7 0.0
18/10:30am 24.6 22.5 14.1 54 6.4 NNW 16 20 9 11 1017.1 1017.1 0.0
18/10:00am 22.6 21.9 15.0 67 4.7 NNW 12 17 6 9 1017.4 1017.4 0.0
18/09:30am 20.2 20.4 15.3 74 3.1 NW 8 10 4 5 1017.5 1017.5 0.0
18/09:00am 19.6 20.0 15.1 83 2.8 NNW 6 8 3 4 1017.4 1017.4 0.0
18/08:30am 14.6 15.7 14.6 100 0.0 WNW 2 6 1 3 1017.4 1017.4 0.2
18/08:00am 12.2 12.3 12.2 100 0.0 WNW 4 6 2 3 1017.2 1017.2 0.2
18/07:30am 9.6 9.5 9.6 100 0.0 CALM 0 0 0 0 1016.9 1016.9 0.2
18/07:00am 8.6 7.6 8.6 100 0.0 W 5 6 3 3 1016.6 1016.6 0.2
18/06:30am 10.3 9.6 10.3 100 0.0 W 4 6 2 3 1016.1 1016.1 0.2
18/06:00am 12.8 12.9 10.6 87 1.2 WSW 4 8 2 4 1015.8 1015.8 0.2
18/05:30am 11.1 11.3 10.4 100 0.4 CALM 0 0 0 0 1015.4 1015.4 0.0
18/05:00am 11.4 11.5 10.3 100 0.6 CALM 0 0 0 0 1015.3 1015.3 0.0
18/04:30am 11.5 11.6 10.3 100 0.7 CALM 0 0 0 0 1015.0 1015.0 0.0
18/04:00am 12.0 12.2 10.6 97 0.8 CALM 0 0 0 0 1014.8 1014.8 0.0
18/03:30am 12.8 12.9 10.4 98 1.3 CALM 0 0 0 0 1014.8 1014.8 0.0
18/03:00am 10.5 10.7 10.5 100 0.0 WSW 1 3 1 2 1014.9 1014.9 0.0
18/02:30am 12.8 13.0 11.3 93 0.9 WSW 1 3 1 2 1015.1 1015.1 0.0
18/02:00am 14.3 13.8 11.4 85 1.7 WSW 5 6 3 3 1015.2 1015.2 0.0
18/01:30am 16.2 18.3 16.2 100 0.0 CALM 0 0 0 0 1015.4 1015.4 0.0
18/01:00am 16.0 18.0 16.0 100 0.0 CALM 0 0 0 0 1015.5 1015.5 0.0
18/12:30am 16.0 16.9 13.0 83 1.8 CALM 0 0 0 0 1015.6 1015.6 0.0
18/12:00am 15.0 15.6 11.8 81 1.8 CALM 0 0 0 0 1015.7 1015.7 0.0
 


NOTE: The apparent temperature specified in the table above is calculated using both the Heat Index and Steadman method. This differs to the Bureau of Meteorology's calculation which uses the Steadman method alone.

Copyright (c) ASPGWeather, 2018. Radar images are courtesy of the Australian Government Bureau of Meteorology, 2018.